sensor_id;sensor_type;location;lat;lon;timestamp;P1;durP1;ratioP1;P2;durP2;ratioP2
3349;SDS011;1688;51.000;13.684;2023-02-28T00:01:59;0.70;;;0.40;;
3349;SDS011;1688;51.000;13.684;2023-02-28T00:04:32;0.70;;;0.43;;
3349;SDS011;1688;51.000;13.684;2023-02-28T00:07:06;0.70;;;0.43;;
3349;SDS011;1688;51.000;13.684;2023-02-28T00:09:39;0.70;;;0.50;;
3349;SDS011;1688;51.000;13.684;2023-02-28T00:12:12;0.70;;;0.50;;
3349;SDS011;1688;51.000;13.684;2023-02-28T00:14:46;0.70;;;0.50;;
3349;SDS011;1688;51.000;13.684;2023-02-28T00:17:19;0.70;;;0.40;;
3349;SDS011;1688;51.000;13.684;2023-02-28T00:19:53;0.70;;;0.50;;
3349;SDS011;1688;51.000;13.684;2023-02-28T00:22:28;0.70;;;0.50;;
3349;SDS011;1688;51.000;13.684;2023-02-28T00:25:01;0.70;;;0.50;;
3349;SDS011;1688;51.000;13.684;2023-02-28T00:27:36;0.70;;;0.50;;
3349;SDS011;1688;51.000;13.684;2023-02-28T00:30:11;0.70;;;0.50;;
3349;SDS011;1688;51.000;13.684;2023-02-28T00:32:44;0.70;;;0.40;;
3349;SDS011;1688;51.000;13.684;2023-02-28T00:35:17;0.70;;;0.40;;
3349;SDS011;1688;51.000;13.684;2023-02-28T00:37:51;0.70;;;0.50;;
3349;SDS011;1688;51.000;13.684;2023-02-28T00:40:24;0.70;;;0.50;;
3349;SDS011;1688;51.000;13.684;2023-02-28T00:42:57;0.70;;;0.50;;
3349;SDS011;1688;51.000;13.684;2023-02-28T00:45:30;0.70;;;0.40;;
3349;SDS011;1688;51.000;13.684;2023-02-28T00:48:04;0.70;;;0.60;;
3349;SDS011;1688;51.000;13.684;2023-02-28T00:50:38;7.93;;;7.53;;
3349;SDS011;1688;51.000;13.684;2023-02-28T00:53:11;0.70;;;0.60;;
3349;SDS011;1688;51.000;13.684;2023-02-28T00:55:44;0.70;;;0.50;;
3349;SDS011;1688;51.000;13.684;2023-02-28T00:58:17;0.70;;;0.50;;
3349;SDS011;1688;51.000;13.684;2023-02-28T01:00:51;0.70;;;0.47;;
3349;SDS011;1688;51.000;13.684;2023-02-28T01:03:24;0.70;;;0.40;;
3349;SDS011;1688;51.000;13.684;2023-02-28T01:05:58;0.70;;;0.50;;
3349;SDS011;1688;51.000;13.684;2023-02-28T01:08:31;0.70;;;0.50;;
3349;SDS011;1688;51.000;13.684;2023-02-28T01:11:08;0.70;;;0.50;;
3349;SDS011;1688;51.000;13.684;2023-02-28T01:13:41;0.70;;;0.40;;
3349;SDS011;1688;51.000;13.684;2023-02-28T01:16:15;0.70;;;0.50;;
3349;SDS011;1688;51.000;13.684;2023-02-28T01:18:48;0.70;;;0.47;;
3349;SDS011;1688;51.000;13.684;2023-02-28T01:21:22;0.70;;;0.50;;
3349;SDS011;1688;51.000;13.684;2023-02-28T01:23:56;0.70;;;0.50;;
3349;SDS011;1688;51.000;13.684;2023-02-28T01:26:30;1.77;;;1.67;;
3349;SDS011;1688;51.000;13.684;2023-02-28T01:29:03;0.70;;;0.50;;
3349;SDS011;1688;51.000;13.684;2023-02-28T01:31:36;0.70;;;0.50;;
3349;SDS011;1688;51.000;13.684;2023-02-28T01:34:10;0.70;;;0.50;;
3349;SDS011;1688;51.000;13.684;2023-02-28T01:36:43;0.80;;;0.80;;
3349;SDS011;1688;51.000;13.684;2023-02-28T01:39:16;0.70;;;0.40;;
3349;SDS011;1688;51.000;13.684;2023-02-28T01:41:50;0.70;;;0.50;;
3349;SDS011;1688;51.000;13.684;2023-02-28T01:47:14;0.70;;;0.50;;
3349;SDS011;1688;51.000;13.684;2023-02-28T01:49:48;0.70;;;0.50;;
3349;SDS011;1688;51.000;13.684;2023-02-28T01:52:23;0.70;;;0.50;;
3349;SDS011;1688;51.000;13.684;2023-02-28T01:54:57;0.70;;;0.43;;
3349;SDS011;1688;51.000;13.684;2023-02-28T01:57:33;0.70;;;0.50;;
3349;SDS011;1688;51.000;13.684;2023-02-28T02:00:10;0.70;;;0.50;;
3349;SDS011;1688;51.000;13.684;2023-02-28T02:02:48;0.70;;;0.40;;
3349;SDS011;1688;51.000;13.684;2023-02-28T02:05:24;0.70;;;0.50;;
3349;SDS011;1688;51.000;13.684;2023-02-28T02:08:01;0.70;;;0.50;;
3349;SDS011;1688;51.000;13.684;2023-02-28T02:34:34;0.70;;;0.40;;
3349;SDS011;1688;51.000;13.684;2023-02-28T02:37:27;0.70;;;0.50;;
3349;SDS011;1688;51.000;13.684;2023-02-28T02:40:11;0.70;;;0.50;;
3349;SDS011;1688;51.000;13.684;2023-02-28T02:47:58;0.70;;;0.50;;
3349;SDS011;1688;51.000;13.684;2023-02-28T02:50:54;0.70;;;0.50;;
3349;SDS011;1688;51.000;13.684;2023-02-28T02:53:30;0.70;;;0.50;;
3349;SDS011;1688;51.000;13.684;2023-02-28T02:56:05;0.70;;;0.40;;
3349;SDS011;1688;51.000;13.684;2023-02-28T02:58:40;0.70;;;0.50;;
3349;SDS011;1688;51.000;13.684;2023-02-28T03:01:16;0.70;;;0.50;;
3349;SDS011;1688;51.000;13.684;2023-02-28T03:04:13;0.70;;;0.40;;
3349;SDS011;1688;51.000;13.684;2023-02-28T03:06:50;0.70;;;0.50;;
3349;SDS011;1688;51.000;13.684;2023-02-28T03:09:26;0.70;;;0.40;;
3349;SDS011;1688;51.000;13.684;2023-02-28T03:12:00;0.70;;;0.50;;
3349;SDS011;1688;51.000;13.684;2023-02-28T03:17:28;0.70;;;0.60;;
3349;SDS011;1688;51.000;13.684;2023-02-28T03:23:03;0.70;;;0.50;;
3349;SDS011;1688;51.000;13.684;2023-02-28T03:28:42;0.70;;;0.50;;
3349;SDS011;1688;51.000;13.684;2023-02-28T03:31:19;0.70;;;0.40;;
3349;SDS011;1688;51.000;13.684;2023-02-28T03:33:57;0.70;;;0.50;;
3349;SDS011;1688;51.000;13.684;2023-02-28T03:39:36;0.70;;;0.50;;
3349;SDS011;1688;51.000;13.684;2023-02-28T03:42:14;0.70;;;0.50;;
3349;SDS011;1688;51.000;13.684;2023-02-28T03:44:50;0.70;;;0.50;;
3349;SDS011;1688;51.000;13.684;2023-02-28T03:47:27;0.70;;;0.40;;
3349;SDS011;1688;51.000;13.684;2023-02-28T03:50:06;0.70;;;0.50;;
3349;SDS011;1688;51.000;13.684;2023-02-28T03:52:44;0.70;;;0.50;;
3349;SDS011;1688;51.000;13.684;2023-02-28T03:55:19;0.70;;;0.50;;
3349;SDS011;1688;51.000;13.684;2023-02-28T03:57:56;0.70;;;0.50;;
3349;SDS011;1688;51.000;13.684;2023-02-28T04:00:34;0.70;;;0.40;;
3349;SDS011;1688;51.000;13.684;2023-02-28T04:03:08;0.70;;;0.47;;
3349;SDS011;1688;51.000;13.684;2023-02-28T04:05:46;0.70;;;0.50;;
3349;SDS011;1688;51.000;13.684;2023-02-28T04:08:21;0.70;;;0.50;;
3349;SDS011;1688;51.000;13.684;2023-02-28T04:10:56;0.70;;;0.40;;
3349;SDS011;1688;51.000;13.684;2023-02-28T04:13:31;0.70;;;0.40;;
3349;SDS011;1688;51.000;13.684;2023-02-28T04:16:07;0.70;;;0.43;;
3349;SDS011;1688;51.000;13.684;2023-02-28T04:18:55;0.70;;;0.40;;
3349;SDS011;1688;51.000;13.684;2023-02-28T04:21:44;0.70;;;0.50;;
3349;SDS011;1688;51.000;13.684;2023-02-28T04:24:19;0.70;;;0.40;;
3349;SDS011;1688;51.000;13.684;2023-02-28T04:26:53;0.70;;;0.50;;
3349;SDS011;1688;51.000;13.684;2023-02-28T04:29:27;0.70;;;0.50;;
3349;SDS011;1688;51.000;13.684;2023-02-28T04:32:01;0.70;;;0.50;;
3349;SDS011;1688;51.000;13.684;2023-02-28T04:34:35;0.70;;;0.50;;
3349;SDS011;1688;51.000;13.684;2023-02-28T04:37:08;0.70;;;0.50;;
3349;SDS011;1688;51.000;13.684;2023-02-28T04:39:45;0.70;;;0.50;;
3349;SDS011;1688;51.000;13.684;2023-02-28T04:42:18;0.70;;;0.50;;
3349;SDS011;1688;51.000;13.684;2023-02-28T04:44:51;0.70;;;0.50;;
3349;SDS011;1688;51.000;13.684;2023-02-28T04:47:24;0.70;;;0.50;;
3349;SDS011;1688;51.000;13.684;2023-02-28T04:49:58;1.13;;;1.13;;
3349;SDS011;1688;51.000;13.684;2023-02-28T04:52:31;0.70;;;0.50;;
3349;SDS011;1688;51.000;13.684;2023-02-28T04:55:04;1.70;;;1.60;;
3349;SDS011;1688;51.000;13.684;2023-02-28T04:57:38;0.70;;;0.50;;
3349;SDS011;1688;51.000;13.684;2023-02-28T05:00:11;0.70;;;0.50;;
3349;SDS011;1688;51.000;13.684;2023-02-28T05:02:47;0.70;;;0.50;;
3349;SDS011;1688;51.000;13.684;2023-02-28T05:05:20;0.70;;;0.50;;
3349;SDS011;1688;51.000;13.684;2023-02-28T05:07:54;0.70;;;0.50;;
3349;SDS011;1688;51.000;13.684;2023-02-28T05:10:27;3.27;;;3.13;;
3349;SDS011;1688;51.000;13.684;2023-02-28T05:13:01;0.70;;;0.50;;
3349;SDS011;1688;51.000;13.684;2023-02-28T05:15:34;0.70;;;0.40;;
3349;SDS011;1688;51.000;13.684;2023-02-28T05:18:08;0.70;;;0.50;;
3349;SDS011;1688;51.000;13.684;2023-02-28T05:20:41;0.70;;;0.50;;
3349;SDS011;1688;51.000;13.684;2023-02-28T05:23:14;0.70;;;0.50;;
3349;SDS011;1688;51.000;13.684;2023-02-28T05:25:49;0.70;;;0.50;;
3349;SDS011;1688;51.000;13.684;2023-02-28T05:28:24;0.70;;;0.50;;
3349;SDS011;1688;51.000;13.684;2023-02-28T05:30:57;0.70;;;0.50;;
3349;SDS011;1688;51.000;13.684;2023-02-28T05:33:30;0.70;;;0.50;;
3349;SDS011;1688;51.000;13.684;2023-02-28T05:36:03;0.70;;;0.50;;
3349;SDS011;1688;51.000;13.684;2023-02-28T05:38:37;0.70;;;0.47;;
3349;SDS011;1688;51.000;13.684;2023-02-28T05:41:11;0.70;;;0.50;;
3349;SDS011;1688;51.000;13.684;2023-02-28T05:43:44;0.70;;;0.50;;
3349;SDS011;1688;51.000;13.684;2023-02-28T05:46:17;0.70;;;0.40;;
3349;SDS011;1688;51.000;13.684;2023-02-28T05:48:51;0.70;;;0.50;;
3349;SDS011;1688;51.000;13.684;2023-02-28T05:51:24;0.80;;;0.80;;
3349;SDS011;1688;51.000;13.684;2023-02-28T05:54:00;0.70;;;0.70;;
3349;SDS011;1688;51.000;13.684;2023-02-28T05:56:33;0.70;;;0.60;;
3349;SDS011;1688;51.000;13.684;2023-02-28T05:59:07;0.83;;;0.83;;
3349;SDS011;1688;51.000;13.684;2023-02-28T06:01:41;1.30;;;1.30;;
3349;SDS011;1688;51.000;13.684;2023-02-28T06:04:20;0.80;;;0.80;;
3349;SDS011;1688;51.000;13.684;2023-02-28T06:07:02;0.70;;;0.50;;
3349;SDS011;1688;51.000;13.684;2023-02-28T06:09:36;2.20;;;2.10;;
3349;SDS011;1688;51.000;13.684;2023-02-28T06:12:09;0.83;;;0.83;;
3349;SDS011;1688;51.000;13.684;2023-02-28T06:14:43;0.70;;;0.70;;
3349;SDS011;1688;51.000;13.684;2023-02-28T06:17:16;0.70;;;0.50;;
3349;SDS011;1688;51.000;13.684;2023-02-28T06:19:49;0.70;;;0.50;;
3349;SDS011;1688;51.000;13.684;2023-02-28T06:22:22;0.70;;;0.40;;
3349;SDS011;1688;51.000;13.684;2023-02-28T06:24:56;1.00;;;0.77;;
3349;SDS011;1688;51.000;13.684;2023-02-28T06:27:30;0.80;;;0.80;;
3349;SDS011;1688;51.000;13.684;2023-02-28T06:30:03;0.70;;;0.50;;
3349;SDS011;1688;51.000;13.684;2023-02-28T06:32:37;0.97;;;0.97;;
3349;SDS011;1688;51.000;13.684;2023-02-28T06:35:11;0.90;;;0.90;;
3349;SDS011;1688;51.000;13.684;2023-02-28T06:37:45;0.70;;;0.70;;
3349;SDS011;1688;51.000;13.684;2023-02-28T06:40:19;0.70;;;0.70;;
3349;SDS011;1688;51.000;13.684;2023-02-28T06:42:52;0.80;;;0.80;;
3349;SDS011;1688;51.000;13.684;2023-02-28T06:45:25;0.70;;;0.50;;
3349;SDS011;1688;51.000;13.684;2023-02-28T06:47:58;0.73;;;0.73;;
3349;SDS011;1688;51.000;13.684;2023-02-28T06:50:32;0.70;;;0.40;;
3349;SDS011;1688;51.000;13.684;2023-02-28T06:53:05;0.70;;;0.50;;
3349;SDS011;1688;51.000;13.684;2023-02-28T06:55:39;0.70;;;0.50;;
3349;SDS011;1688;51.000;13.684;2023-02-28T06:58:12;0.80;;;0.80;;
3349;SDS011;1688;51.000;13.684;2023-02-28T07:00:51;0.90;;;0.90;;
3349;SDS011;1688;51.000;13.684;2023-02-28T07:03:24;0.70;;;0.50;;
3349;SDS011;1688;51.000;13.684;2023-02-28T07:05:58;0.70;;;0.50;;
3349;SDS011;1688;51.000;13.684;2023-02-28T07:08:31;0.70;;;0.50;;
3349;SDS011;1688;51.000;13.684;2023-02-28T07:11:05;0.70;;;0.50;;
3349;SDS011;1688;51.000;13.684;2023-02-28T07:13:38;0.70;;;0.50;;
3349;SDS011;1688;51.000;13.684;2023-02-28T07:16:11;0.70;;;0.47;;
3349;SDS011;1688;51.000;13.684;2023-02-28T07:18:44;0.70;;;0.50;;
3349;SDS011;1688;51.000;13.684;2023-02-28T07:21:18;0.70;;;0.40;;
3349;SDS011;1688;51.000;13.684;2023-02-28T07:23:51;0.70;;;0.50;;
3349;SDS011;1688;51.000;13.684;2023-02-28T07:26:24;0.70;;;0.50;;
3349;SDS011;1688;51.000;13.684;2023-02-28T07:28:57;0.70;;;0.50;;
3349;SDS011;1688;51.000;13.684;2023-02-28T07:31:31;0.70;;;0.50;;
3349;SDS011;1688;51.000;13.684;2023-02-28T07:34:04;0.70;;;0.50;;
3349;SDS011;1688;51.000;13.684;2023-02-28T07:36:37;0.70;;;0.50;;
3349;SDS011;1688;51.000;13.684;2023-02-28T07:39:11;0.70;;;0.50;;
3349;SDS011;1688;51.000;13.684;2023-02-28T07:41:44;0.70;;;0.40;;
3349;SDS011;1688;51.000;13.684;2023-02-28T07:44:17;0.70;;;0.50;;
3349;SDS011;1688;51.000;13.684;2023-02-28T07:46:50;0.70;;;0.50;;
3349;SDS011;1688;51.000;13.684;2023-02-28T07:49:24;0.70;;;0.50;;
3349;SDS011;1688;51.000;13.684;2023-02-28T07:51:58;0.70;;;0.50;;
3349;SDS011;1688;51.000;13.684;2023-02-28T07:54:31;0.70;;;0.50;;
3349;SDS011;1688;51.000;13.684;2023-02-28T07:57:04;0.70;;;0.50;;
3349;SDS011;1688;51.000;13.684;2023-02-28T07:59:37;0.70;;;0.43;;
3349;SDS011;1688;51.000;13.684;2023-02-28T08:02:15;0.70;;;0.40;;
3349;SDS011;1688;51.000;13.684;2023-02-28T08:04:48;0.70;;;0.47;;
3349;SDS011;1688;51.000;13.684;2023-02-28T08:07:22;0.70;;;0.50;;
3349;SDS011;1688;51.000;13.684;2023-02-28T08:09:55;0.70;;;0.50;;
3349;SDS011;1688;51.000;13.684;2023-02-28T08:12:28;0.70;;;0.40;;
3349;SDS011;1688;51.000;13.684;2023-02-28T08:15:01;0.70;;;0.50;;
3349;SDS011;1688;51.000;13.684;2023-02-28T08:17:35;0.70;;;0.40;;
3349;SDS011;1688;51.000;13.684;2023-02-28T08:20:08;0.70;;;0.50;;
3349;SDS011;1688;51.000;13.684;2023-02-28T08:22:42;0.70;;;0.50;;
3349;SDS011;1688;51.000;13.684;2023-02-28T08:25:17;0.70;;;0.50;;
3349;SDS011;1688;51.000;13.684;2023-02-28T08:27:51;0.70;;;0.40;;
3349;SDS011;1688;51.000;13.684;2023-02-28T08:30:25;0.70;;;0.50;;
3349;SDS011;1688;51.000;13.684;2023-02-28T08:32:58;0.70;;;0.50;;
3349;SDS011;1688;51.000;13.684;2023-02-28T08:35:31;0.70;;;0.50;;
3349;SDS011;1688;51.000;13.684;2023-02-28T08:38:04;0.70;;;0.50;;
3349;SDS011;1688;51.000;13.684;2023-02-28T08:40:38;0.70;;;0.50;;
3349;SDS011;1688;51.000;13.684;2023-02-28T08:43:11;0.70;;;0.50;;
3349;SDS011;1688;51.000;13.684;2023-02-28T08:45:44;2.30;;;2.20;;
3349;SDS011;1688;51.000;13.684;2023-02-28T08:48:17;0.70;;;0.40;;
3349;SDS011;1688;51.000;13.684;2023-02-28T08:50:54;0.70;;;0.70;;
3349;SDS011;1688;51.000;13.684;2023-02-28T08:53:39;0.70;;;0.40;;
3349;SDS011;1688;51.000;13.684;2023-02-28T08:56:13;1.43;;;1.30;;
3349;SDS011;1688;51.000;13.684;2023-02-28T08:58:49;0.70;;;0.50;;
3349;SDS011;1688;51.000;13.684;2023-02-28T09:01:24;0.70;;;0.50;;
3349;SDS011;1688;51.000;13.684;2023-02-28T09:03:59;0.70;;;0.50;;
3349;SDS011;1688;51.000;13.684;2023-02-28T09:06:34;1.30;;;1.20;;
3349;SDS011;1688;51.000;13.684;2023-02-28T09:09:07;0.70;;;0.50;;
3349;SDS011;1688;51.000;13.684;2023-02-28T09:11:41;0.70;;;0.50;;
3349;SDS011;1688;51.000;13.684;2023-02-28T09:14:14;0.70;;;0.50;;
3349;SDS011;1688;51.000;13.684;2023-02-28T09:16:49;0.70;;;0.50;;
3349;SDS011;1688;51.000;13.684;2023-02-28T09:19:22;3.70;;;3.40;;
3349;SDS011;1688;51.000;13.684;2023-02-28T09:21:56;0.70;;;0.50;;
3349;SDS011;1688;51.000;13.684;2023-02-28T09:24:29;0.70;;;0.50;;
3349;SDS011;1688;51.000;13.684;2023-02-28T09:27:04;0.70;;;0.40;;
3349;SDS011;1688;51.000;13.684;2023-02-28T09:29:38;0.70;;;0.40;;
3349;SDS011;1688;51.000;13.684;2023-02-28T09:32:11;0.70;;;0.50;;
3349;SDS011;1688;51.000;13.684;2023-02-28T09:34:44;0.70;;;0.40;;
3349;SDS011;1688;51.000;13.684;2023-02-28T09:37:17;0.70;;;0.40;;
3349;SDS011;1688;51.000;13.684;2023-02-28T09:39:51;0.70;;;0.50;;
3349;SDS011;1688;51.000;13.684;2023-02-28T09:42:29;0.70;;;0.50;;
3349;SDS011;1688;51.000;13.684;2023-02-28T09:45:13;0.70;;;0.50;;
3349;SDS011;1688;51.000;13.684;2023-02-28T09:47:49;0.70;;;0.40;;
3349;SDS011;1688;51.000;13.684;2023-02-28T09:50:28;0.70;;;0.50;;
3349;SDS011;1688;51.000;13.684;2023-02-28T09:53:14;0.70;;;0.60;;
3349;SDS011;1688;51.000;13.684;2023-02-28T09:55:49;0.70;;;0.50;;
3349;SDS011;1688;51.000;13.684;2023-02-28T09:58:26;0.70;;;0.40;;
3349;SDS011;1688;51.000;13.684;2023-02-28T10:03:46;0.70;;;0.40;;
3349;SDS011;1688;51.000;13.684;2023-02-28T10:06:23;0.70;;;0.50;;
3349;SDS011;1688;51.000;13.684;2023-02-28T10:09:04;0.70;;;0.40;;
3349;SDS011;1688;51.000;13.684;2023-02-28T10:11:41;0.70;;;0.40;;
3349;SDS011;1688;51.000;13.684;2023-02-28T10:14:24;0.70;;;0.50;;
3349;SDS011;1688;51.000;13.684;2023-02-28T10:17:02;0.70;;;0.40;;
3349;SDS011;1688;51.000;13.684;2023-02-28T10:19:51;0.70;;;0.50;;
3349;SDS011;1688;51.000;13.684;2023-02-28T10:22:37;0.70;;;0.40;;
3349;SDS011;1688;51.000;13.684;2023-02-28T10:25:16;0.70;;;0.50;;
3349;SDS011;1688;51.000;13.684;2023-02-28T10:27:52;0.70;;;0.40;;
3349;SDS011;1688;51.000;13.684;2023-02-28T10:30:26;0.70;;;0.50;;
3349;SDS011;1688;51.000;13.684;2023-02-28T10:32:59;0.70;;;0.50;;
3349;SDS011;1688;51.000;13.684;2023-02-28T10:35:33;0.70;;;0.40;;
3349;SDS011;1688;51.000;13.684;2023-02-28T10:38:09;0.70;;;0.50;;
3349;SDS011;1688;51.000;13.684;2023-02-28T10:40:44;0.70;;;0.50;;
3349;SDS011;1688;51.000;13.684;2023-02-28T10:43:19;0.70;;;0.50;;
3349;SDS011;1688;51.000;13.684;2023-02-28T10:45:53;0.70;;;0.50;;
3349;SDS011;1688;51.000;13.684;2023-02-28T10:51:02;0.70;;;0.50;;
3349;SDS011;1688;51.000;13.684;2023-02-28T10:53:54;0.70;;;0.50;;
3349;SDS011;1688;51.000;13.684;2023-02-28T10:56:33;0.70;;;0.50;;
3349;SDS011;1688;51.000;13.684;2023-02-28T11:01:59;0.70;;;0.40;;
3349;SDS011;1688;51.000;13.684;2023-02-28T11:04:36;0.70;;;0.40;;
3349;SDS011;1688;51.000;13.684;2023-02-28T11:07:18;0.70;;;0.50;;
3349;SDS011;1688;51.000;13.684;2023-02-28T11:09:55;0.70;;;0.40;;
3349;SDS011;1688;51.000;13.684;2023-02-28T11:12:34;0.70;;;0.50;;
3349;SDS011;1688;51.000;13.684;2023-02-28T11:15:23;0.70;;;0.40;;
3349;SDS011;1688;51.000;13.684;2023-02-28T11:18:02;0.70;;;0.40;;
3349;SDS011;1688;51.000;13.684;2023-02-28T11:20:35;0.70;;;0.50;;
3349;SDS011;1688;51.000;13.684;2023-02-28T11:23:11;0.70;;;0.40;;
3349;SDS011;1688;51.000;13.684;2023-02-28T11:25:49;0.70;;;0.50;;
3349;SDS011;1688;51.000;13.684;2023-02-28T11:28:30;1.00;;;0.90;;
3349;SDS011;1688;51.000;13.684;2023-02-28T11:31:05;0.70;;;0.50;;
3349;SDS011;1688;51.000;13.684;2023-02-28T11:36:27;0.70;;;0.40;;
3349;SDS011;1688;51.000;13.684;2023-02-28T11:39:04;0.70;;;0.50;;
3349;SDS011;1688;51.000;13.684;2023-02-28T11:44:39;0.70;;;0.40;;
3349;SDS011;1688;51.000;13.684;2023-02-28T11:52:45;0.70;;;0.50;;
3349;SDS011;1688;51.000;13.684;2023-02-28T11:55:33;0.70;;;0.50;;
3349;SDS011;1688;51.000;13.684;2023-02-28T12:06:36;0.70;;;0.40;;
3349;SDS011;1688;51.000;13.684;2023-02-28T12:09:15;0.70;;;0.50;;
3349;SDS011;1688;51.000;13.684;2023-02-28T12:11:51;0.70;;;0.50;;
3349;SDS011;1688;51.000;13.684;2023-02-28T12:22:31;0.70;;;0.50;;
3349;SDS011;1688;51.000;13.684;2023-02-28T12:27:50;0.70;;;0.50;;
3349;SDS011;1688;51.000;13.684;2023-02-28T12:30:28;0.70;;;0.50;;
3349;SDS011;1688;51.000;13.684;2023-02-28T12:33:04;0.70;;;0.50;;
3349;SDS011;1688;51.000;13.684;2023-02-28T12:36:21;0.70;;;0.50;;
3349;SDS011;1688;51.000;13.684;2023-02-28T12:38:37;0.70;;;0.40;;
3349;SDS011;1688;51.000;13.684;2023-02-28T12:43:45;0.70;;;0.50;;
3349;SDS011;1688;51.000;13.684;2023-02-28T12:46:21;1.27;;;1.10;;
3349;SDS011;1688;51.000;13.684;2023-02-28T12:48:56;0.70;;;0.40;;
3349;SDS011;1688;51.000;13.684;2023-02-28T12:51:30;0.70;;;0.40;;
3349;SDS011;1688;51.000;13.684;2023-02-28T13:02:42;0.70;;;0.50;;
3349;SDS011;1688;51.000;13.684;2023-02-28T13:10:17;0.70;;;0.50;;
3349;SDS011;1688;51.000;13.684;2023-02-28T13:12:54;0.70;;;0.40;;
3349;SDS011;1688;51.000;13.684;2023-02-28T13:15:28;0.70;;;0.50;;
3349;SDS011;1688;51.000;13.684;2023-02-28T13:18:01;0.70;;;0.40;;
3349;SDS011;1688;51.000;13.684;2023-02-28T13:20:35;0.70;;;0.50;;
3349;SDS011;1688;51.000;13.684;2023-02-28T13:23:35;0.70;;;0.50;;
3349;SDS011;1688;51.000;13.684;2023-02-28T13:26:02;0.70;;;0.50;;
3349;SDS011;1688;51.000;13.684;2023-02-28T13:31:25;0.70;;;0.50;;
3349;SDS011;1688;51.000;13.684;2023-02-28T13:34:12;0.70;;;0.43;;
3349;SDS011;1688;51.000;13.684;2023-02-28T13:36:47;13.60;;;8.03;;
3349;SDS011;1688;51.000;13.684;2023-02-28T13:47:37;2.80;;;2.60;;
3349;SDS011;1688;51.000;13.684;2023-02-28T13:55:52;6.93;;;2.47;;
3349;SDS011;1688;51.000;13.684;2023-02-28T14:11:50;17.40;;;10.10;;
3349;SDS011;1688;51.000;13.684;2023-02-28T14:15:18;16.13;;;6.13;;
3349;SDS011;1688;51.000;13.684;2023-02-28T14:17:20;12.83;;;5.07;;
3349;SDS011;1688;51.000;13.684;2023-02-28T14:19:53;9.83;;;4.73;;
3349;SDS011;1688;51.000;13.684;2023-02-28T14:25:17;4.77;;;3.03;;
3349;SDS011;1688;51.000;13.684;2023-02-28T14:28:07;5.30;;;4.23;;
3349;SDS011;1688;51.000;13.684;2023-02-28T14:31:06;9.47;;;4.00;;
3349;SDS011;1688;51.000;13.684;2023-02-28T14:36:26;3.77;;;2.53;;
3349;SDS011;1688;51.000;13.684;2023-02-28T14:39:10;8.43;;;6.40;;
3349;SDS011;1688;51.000;13.684;2023-02-28T14:41:46;7.50;;;6.17;;
3349;SDS011;1688;51.000;13.684;2023-02-28T14:44:21;10.90;;;4.30;;
3349;SDS011;1688;51.000;13.684;2023-02-28T14:46:55;2.00;;;1.90;;
3349;SDS011;1688;51.000;13.684;2023-02-28T14:49:30;12.50;;;3.83;;
3349;SDS011;1688;51.000;13.684;2023-02-28T14:52:06;8.97;;;3.77;;
3349;SDS011;1688;51.000;13.684;2023-02-28T14:54:42;4.73;;;2.87;;
3349;SDS011;1688;51.000;13.684;2023-02-28T14:57:30;3.53;;;3.23;;
3349;SDS011;1688;51.000;13.684;2023-02-28T15:00:11;10.67;;;5.27;;
3349;SDS011;1688;51.000;13.684;2023-02-28T15:02:46;2.63;;;2.43;;
3349;SDS011;1688;51.000;13.684;2023-02-28T15:05:30;6.40;;;3.30;;
3349;SDS011;1688;51.000;13.684;2023-02-28T15:08:14;4.87;;;4.47;;
3349;SDS011;1688;51.000;13.684;2023-02-28T15:10:52;1.93;;;1.83;;
3349;SDS011;1688;51.000;13.684;2023-02-28T15:13:29;9.23;;;6.00;;
3349;SDS011;1688;51.000;13.684;2023-02-28T15:16:04;3.07;;;2.87;;
3349;SDS011;1688;51.000;13.684;2023-02-28T15:21:15;8.60;;;6.83;;
3349;SDS011;1688;51.000;13.684;2023-02-28T15:23:55;4.93;;;4.20;;
3349;SDS011;1688;51.000;13.684;2023-02-28T15:26:30;11.50;;;7.43;;
3349;SDS011;1688;51.000;13.684;2023-02-28T15:29:10;14.10;;;6.73;;
3349;SDS011;1688;51.000;13.684;2023-02-28T15:31:48;15.83;;;10.93;;
3349;SDS011;1688;51.000;13.684;2023-02-28T15:34:39;4.53;;;4.23;;
3349;SDS011;1688;51.000;13.684;2023-02-28T15:37:26;11.13;;;4.80;;
3349;SDS011;1688;51.000;13.684;2023-02-28T15:42:59;6.73;;;4.37;;
3349;SDS011;1688;51.000;13.684;2023-02-28T15:48:25;6.70;;;6.20;;
3349;SDS011;1688;51.000;13.684;2023-02-28T15:51:07;4.20;;;1.83;;
3349;SDS011;1688;51.000;13.684;2023-02-28T15:53:44;13.77;;;5.10;;
3349;SDS011;1688;51.000;13.684;2023-02-28T15:58:56;8.23;;;2.40;;
3349;SDS011;1688;51.000;13.684;2023-02-28T16:01:32;8.50;;;4.77;;
3349;SDS011;1688;51.000;13.684;2023-02-28T16:04:06;15.70;;;7.47;;
3349;SDS011;1688;51.000;13.684;2023-02-28T16:06:44;4.03;;;3.67;;
3349;SDS011;1688;51.000;13.684;2023-02-28T16:09:17;9.23;;;6.20;;
3349;SDS011;1688;51.000;13.684;2023-02-28T16:11:52;9.93;;;4.00;;
3349;SDS011;1688;51.000;13.684;2023-02-28T16:14:26;7.70;;;4.73;;
3349;SDS011;1688;51.000;13.684;2023-02-28T16:17:06;3.60;;;3.30;;
3349;SDS011;1688;51.000;13.684;2023-02-28T16:19:43;7.03;;;3.63;;
3349;SDS011;1688;51.000;13.684;2023-02-28T16:22:16;2.47;;;2.30;;
3349;SDS011;1688;51.000;13.684;2023-02-28T16:24:49;2.27;;;1.80;;
3349;SDS011;1688;51.000;13.684;2023-02-28T16:27:28;7.83;;;3.07;;
3349;SDS011;1688;51.000;13.684;2023-02-28T16:30:04;6.10;;;4.63;;
3349;SDS011;1688;51.000;13.684;2023-02-28T16:32:38;2.50;;;2.30;;
3349;SDS011;1688;51.000;13.684;2023-02-28T16:35:11;9.83;;;4.13;;
3349;SDS011;1688;51.000;13.684;2023-02-28T16:37:46;9.03;;;2.83;;
3349;SDS011;1688;51.000;13.684;2023-02-28T16:40:20;1.60;;;1.50;;
3349;SDS011;1688;51.000;13.684;2023-02-28T16:42:58;3.53;;;2.13;;
3349;SDS011;1688;51.000;13.684;2023-02-28T16:45:32;6.40;;;4.00;;
3349;SDS011;1688;51.000;13.684;2023-02-28T16:48:07;7.70;;;4.63;;
3349;SDS011;1688;51.000;13.684;2023-02-28T16:50:42;5.83;;;1.73;;
3349;SDS011;1688;51.000;13.684;2023-02-28T16:53:18;4.60;;;3.60;;
3349;SDS011;1688;51.000;13.684;2023-02-28T16:55:51;8.80;;;5.33;;
3349;SDS011;1688;51.000;13.684;2023-02-28T16:58:24;2.07;;;1.83;;
3349;SDS011;1688;51.000;13.684;2023-02-28T17:00:58;11.37;;;4.73;;
3349;SDS011;1688;51.000;13.684;2023-02-28T17:03:31;2.63;;;2.10;;
3349;SDS011;1688;51.000;13.684;2023-02-28T17:06:12;3.47;;;3.27;;
3349;SDS011;1688;51.000;13.684;2023-02-28T17:08:49;3.10;;;2.90;;
3349;SDS011;1688;51.000;13.684;2023-02-28T17:11:22;7.07;;;4.73;;
3349;SDS011;1688;51.000;13.684;2023-02-28T17:13:56;5.80;;;2.83;;
3349;SDS011;1688;51.000;13.684;2023-02-28T17:16:30;8.77;;;3.20;;
3349;SDS011;1688;51.000;13.684;2023-02-28T17:19:05;4.87;;;4.40;;
3349;SDS011;1688;51.000;13.684;2023-02-28T17:21:39;1.97;;;1.87;;
3349;SDS011;1688;51.000;13.684;2023-02-28T17:24:13;2.13;;;1.93;;
3349;SDS011;1688;51.000;13.684;2023-02-28T17:27:01;5.33;;;3.30;;
3349;SDS011;1688;51.000;13.684;2023-02-28T17:29:34;6.30;;;4.53;;
3349;SDS011;1688;51.000;13.684;2023-02-28T17:32:07;1.90;;;1.80;;
3349;SDS011;1688;51.000;13.684;2023-02-28T17:34:49;4.90;;;3.67;;
3349;SDS011;1688;51.000;13.684;2023-02-28T17:37:22;5.23;;;4.83;;
3349;SDS011;1688;51.000;13.684;2023-02-28T17:39:56;2.13;;;1.93;;
3349;SDS011;1688;51.000;13.684;2023-02-28T17:42:29;10.47;;;2.57;;
3349;SDS011;1688;51.000;13.684;2023-02-28T17:45:02;4.50;;;3.50;;
3349;SDS011;1688;51.000;13.684;2023-02-28T17:47:35;5.10;;;3.60;;
3349;SDS011;1688;51.000;13.684;2023-02-28T17:50:11;7.00;;;5.90;;
3349;SDS011;1688;51.000;13.684;2023-02-28T17:52:46;5.77;;;4.23;;
3349;SDS011;1688;51.000;13.684;2023-02-28T17:55:20;6.00;;;5.43;;
3349;SDS011;1688;51.000;13.684;2023-02-28T17:57:53;5.27;;;4.03;;
3349;SDS011;1688;51.000;13.684;2023-02-28T18:00:26;7.50;;;3.53;;
3349;SDS011;1688;51.000;13.684;2023-02-28T18:03:00;6.43;;;4.53;;
3349;SDS011;1688;51.000;13.684;2023-02-28T18:05:33;3.00;;;2.50;;
3349;SDS011;1688;51.000;13.684;2023-02-28T18:08:15;6.47;;;2.73;;
3349;SDS011;1688;51.000;13.684;2023-02-28T18:10:48;2.80;;;2.00;;
3349;SDS011;1688;51.000;13.684;2023-02-28T18:13:22;1.70;;;1.60;;
3349;SDS011;1688;51.000;13.684;2023-02-28T18:15:55;4.70;;;1.83;;
3349;SDS011;1688;51.000;13.684;2023-02-28T18:18:28;2.63;;;1.70;;